Time;durP1;ratioP1;P1;durP2;ratioP2;P2;SDS_P1;SDS_P2;PMS_P1;PMS_P2;Temp;Humidity;BMP_temperature;BMP_pressure;BME280_temperature;BME280_humidity;BME280_pressure;Samples;Min_cycle;Max_cycle;Signal;HPM_P1;HPM_P2
2023/12/18 00:01:54;;;;;;;6.27;5.67;;;3.60;64.40;;;;;;5051565;28;20210;-63
2023/12/18 00:04:20;;;;;;;5.27;4.77;;;3.60;64.60;;;;;;5050809;28;20206;-62
2023/12/18 00:06:46;;;;;;;5.80;5.20;;;3.70;64.40;;;;;;5044841;28;20785;-63
2023/12/18 00:09:13;;;;;;;6.40;5.60;;;3.80;63.50;;;;;;5041025;28;20230;-62
2023/12/18 00:11:39;;;;;;;5.93;5.33;;;3.80;63.00;;;;;;5048818;28;20503;-62
2023/12/18 00:14:07;;;;;;;6.77;5.77;;;3.70;63.10;;;;;;5044410;28;20226;-62
2023/12/18 00:16:33;;;;;;;5.73;5.23;;;3.70;63.30;;;;;;5047054;28;20239;-62
2023/12/18 00:19:00;;;;;;;6.37;5.77;;;3.70;63.10;;;;;;5042647;28;20202;-62
2023/12/18 00:21:27;;;;;;;6.30;5.70;;;3.60;63.90;;;;;;5043046;28;20233;-62
2023/12/18 00:23:53;;;;;;;6.10;5.50;;;3.50;63.90;;;;;;5042958;28;20209;-62
2023/12/18 00:26:20;;;;;;;6.57;5.43;;;3.50;64.00;;;;;;5048589;28;20245;-62
2023/12/18 00:28:46;;;;;;;5.57;4.90;;;3.60;64.20;;;;;;5037522;28;20250;-62
2023/12/18 00:31:13;;;;;;;7.23;5.43;;;3.60;63.70;;;;;;5039458;28;20229;-62
2023/12/18 00:33:39;;;;;;;6.20;5.60;;;3.60;63.80;;;;;;5038555;28;20203;-62
2023/12/18 00:36:06;;;;;;;6.23;5.57;;;3.60;64.40;;;;;;5043472;28;20309;-62
2023/12/18 00:38:32;;;;;;;6.17;5.57;;;3.60;63.40;;;;;;5039861;28;20757;-62
2023/12/18 00:40:59;;;;;;;6.13;5.37;;;3.70;63.30;;;;;;5042669;28;20242;-62
2023/12/18 00:43:25;;;;;;;6.23;5.40;;;3.50;63.90;;;;;;5050003;28;20256;-61
2023/12/18 00:45:52;;;;;;;6.67;5.93;;;3.50;64.50;;;;;;5033154;28;20747;-62
2023/12/18 00:48:18;;;;;;;6.20;5.60;;;3.50;64.00;;;;;;5039166;28;20309;-62
2023/12/18 00:50:45;;;;;;;6.60;5.37;;;3.60;63.60;;;;;;5043428;28;20226;-60
2023/12/18 00:53:16;;;;;;;6.37;5.77;;;3.60;63.20;;;;;;5039385;28;20209;-62
2023/12/18 00:55:42;;;;;;;7.10;6.37;;;3.60;63.60;;;;;;5051216;28;20229;-61
2023/12/18 00:58:09;;;;;;;7.37;6.13;;;3.60;64.00;;;;;;5036205;28;20271;-62
2023/12/18 01:00:35;;;;;;;6.53;5.93;;;3.50;64.60;;;;;;5050817;28;20233;-62
2023/12/18 01:03:02;;;;;;;6.50;5.90;;;3.60;64.40;;;;;;5042911;28;20241;-62
2023/12/18 01:05:28;;;;;;;6.70;5.80;;;3.70;64.20;;;;;;5036405;28;20270;-62
2023/12/18 01:07:55;;;;;;;7.10;6.40;;;3.70;64.10;;;;;;5038686;28;20230;-62
2023/12/18 01:10:21;;;;;;;8.23;6.07;;;3.60;63.80;;;;;;5043283;28;20248;-62
2023/12/18 01:12:49;;;;;;;7.17;6.47;;;3.60;64.80;;;;;;5043214;28;20271;-61
2023/12/18 01:15:15;;;;;;;7.57;6.43;;;3.60;64.40;;;;;;5046569;28;20253;-62
2023/12/18 01:17:42;;;;;;;8.00;6.30;;;3.50;64.60;;;;;;5047452;28;20238;-62
2023/12/18 01:20:08;;;;;;;7.83;6.17;;;3.50;64.70;;;;;;5044499;28;20230;-62
2023/12/18 01:22:35;;;;;;;8.33;6.60;;;3.60;64.70;;;;;;5042621;28;20231;-62
2023/12/18 01:25:02;;;;;;;6.53;5.90;;;3.60;64.00;;;;;;5038780;28;20671;-61
2023/12/18 01:27:28;;;;;;;7.17;6.20;;;3.70;64.30;;;;;;5051406;28;20206;-62
2023/12/18 01:29:55;;;;;;;7.20;6.50;;;3.70;64.00;;;;;;5050963;28;20207;-62
2023/12/18 01:32:21;;;;;;;6.37;5.73;;;3.60;64.30;;;;;;5046227;28;20242;-62
2023/12/18 01:34:48;;;;;;;7.37;6.03;;;3.60;65.00;;;;;;5043633;28;20656;-62
2023/12/18 01:37:14;;;;;;;6.73;6.03;;;3.60;64.60;;;;;;5046161;28;20206;-62
2023/12/18 01:39:41;;;;;;;6.83;5.70;;;3.70;64.30;;;;;;5039974;28;20633;-62
2023/12/18 01:42:07;;;;;;;6.70;6.10;;;3.70;64.30;;;;;;5046215;28;20222;-62
2023/12/18 01:44:34;;;;;;;6.27;5.67;;;3.70;64.00;;;;;;5039589;28;20633;-62
2023/12/18 01:47:00;;;;;;;6.60;6.00;;;3.70;64.00;;;;;;5048070;28;20259;-62
2023/12/18 01:49:27;;;;;;;6.60;6.00;;;3.60;64.40;;;;;;5044831;28;20234;-62
2023/12/18 01:51:53;;;;;;;6.53;5.93;;;3.70;64.70;;;;;;5045633;28;20776;-62
2023/12/18 01:54:22;;;;;;;5.97;5.47;;;3.70;64.30;;;;;;5045710;28;20206;-62
2023/12/18 01:56:48;;;;;;;6.30;5.67;;;3.60;63.80;;;;;;5042681;28;20233;-62
2023/12/18 01:59:15;;;;;;;6.30;5.70;;;3.60;64.60;;;;;;5049135;28;20210;-62
2023/12/18 02:01:41;;;;;;;6.70;6.00;;;3.60;64.20;;;;;;5033922;28;20252;-62
2023/12/18 02:04:08;;;;;;;7.30;5.67;;;3.50;64.70;;;;;;5041903;28;20202;-62
2023/12/18 02:06:34;;;;;;;9.27;6.33;;;3.50;64.80;;;;;;5042740;28;20261;-62
2023/12/18 02:09:01;;;;;;;7.30;6.30;;;3.50;64.90;;;;;;5045114;28;20584;-62
2023/12/18 02:11:27;;;;;;;7.90;6.67;;;3.60;64.80;;;;;;5040947;28;20381;-62
2023/12/18 02:13:54;;;;;;;8.60;6.47;;;3.60;64.90;;;;;;5054395;28;20654;-62
2023/12/18 02:16:22;;;;;;;7.53;6.27;;;3.50;64.60;;;;;;5055347;28;20226;-62
2023/12/18 02:18:48;;;;;;;8.23;5.87;;;3.50;64.30;;;;;;5045595;28;20260;-62
2023/12/18 02:21:15;;;;;;;6.77;5.70;;;3.50;64.70;;;;;;5053287;28;20232;-62
2023/12/18 02:23:44;;;;;;;6.67;6.07;;;3.50;64.80;;;;;;5049156;28;20233;-62
2023/12/18 02:26:10;;;;;;;6.83;6.20;;;3.50;64.90;;;;;;5049764;28;20301;-62
2023/12/18 02:28:37;;;;;;;6.53;5.93;;;3.40;64.80;;;;;;5045234;28;20209;-62
2023/12/18 02:31:03;;;;;;;6.00;5.40;;;3.40;65.00;;;;;;5052834;28;20299;-62
2023/12/18 02:33:30;;;;;;;6.97;6.27;;;3.40;64.90;;;;;;5044952;28;20209;-62
2023/12/18 02:35:56;;;;;;;6.80;6.17;;;3.50;64.30;;;;;;5039896;28;20233;-62
2023/12/18 02:38:23;;;;;;;7.50;5.83;;;3.50;64.50;;;;;;5043953;28;20287;-61
2023/12/18 02:40:49;;;;;;;6.00;5.50;;;3.50;64.00;;;;;;5050297;28;20267;-61
2023/12/18 02:43:16;;;;;;;6.00;5.50;;;3.50;64.10;;;;;;5051357;28;20206;-61
2023/12/18 02:45:42;;;;;;;6.60;5.20;;;3.50;64.50;;;;;;5042948;28;20662;-62
2023/12/18 02:48:09;;;;;;;6.03;5.50;;;3.50;64.40;;;;;;5046321;28;20215;-62
2023/12/18 02:50:35;;;;;;;5.63;5.03;;;3.50;63.90;;;;;;5041842;28;20221;-61
2023/12/18 02:53:02;;;;;;;5.23;4.83;;;3.60;64.00;;;;;;5040523;28;20205;-62
2023/12/18 02:55:28;;;;;;;5.40;4.90;;;3.60;64.30;;;;;;5045346;28;20279;-62
2023/12/18 02:57:55;;;;;;;6.17;5.57;;;3.60;63.50;;;;;;5042803;28;20645;-62
2023/12/18 03:00:21;;;;;;;5.27;4.53;;;3.50;63.60;;;;;;5040776;28;20234;-62
2023/12/18 03:02:48;;;;;;;5.73;5.20;;;3.50;64.40;;;;;;5046816;28;20280;-62
2023/12/18 03:05:15;;;;;;;5.23;4.70;;;3.50;63.90;;;;;;5040346;28;20672;-62
2023/12/18 03:07:41;;;;;;;5.20;4.70;;;3.60;64.00;;;;;;5048900;28;20714;-61
2023/12/18 03:10:08;;;;;;;6.17;4.70;;;3.60;63.60;;;;;;5040559;28;20234;-61
2023/12/18 03:12:34;;;;;;;5.33;4.83;;;3.70;63.40;;;;;;5035796;28;20279;-62
2023/12/18 03:15:00;;;;;;;4.80;4.33;;;3.70;63.30;;;;;;5043120;28;20655;-61
2023/12/18 03:17:27;;;;;;;6.00;5.37;;;3.70;63.60;;;;;;5045289;28;20237;-61
2023/12/18 03:19:53;;;;;;;5.37;4.40;;;3.60;63.40;;;;;;5044227;28;20244;-61
2023/12/18 03:22:20;;;;;;;4.80;4.40;;;3.70;63.60;;;;;;5044168;28;20743;-61
2023/12/18 03:24:46;;;;;;;4.30;3.90;;;3.60;63.50;;;;;;5040630;28;20288;-62
2023/12/18 03:27:13;;;;;;;4.30;3.90;;;3.60;63.20;;;;;;5040286;28;20631;-62
2023/12/18 03:29:39;;;;;;;4.60;4.20;;;3.70;63.50;;;;;;5043334;28;20206;-61
2023/12/18 03:32:06;;;;;;;4.33;3.93;;;3.70;63.60;;;;;;5040553;28;20306;-62
2023/12/18 03:34:32;;;;;;;4.60;3.90;;;3.60;63.10;;;;;;5040471;28;20234;-62
2023/12/18 03:36:59;;;;;;;4.03;3.50;;;3.70;63.20;;;;;;5045518;28;20241;-62
2023/12/18 03:39:25;;;;;;;3.67;3.37;;;3.70;63.30;;;;;;5039885;28;20217;-62
2023/12/18 03:41:52;;;;;;;5.73;3.90;;;3.70;63.00;;;;;;5046814;28;20298;-61
2023/12/18 03:44:18;;;;;;;4.83;4.40;;;3.70;62.90;;;;;;5046558;28;20239;-62
2023/12/18 03:46:45;;;;;;;5.00;3.87;;;3.70;63.00;;;;;;5048190;28;20264;-62
2023/12/18 03:49:11;;;;;;;4.60;4.20;;;3.70;63.10;;;;;;5039346;28;20234;-62
2023/12/18 03:51:38;;;;;;;4.30;3.40;;;3.80;63.10;;;;;;5048461;28;20231;-62
2023/12/18 03:54:04;;;;;;;4.27;3.90;;;3.80;63.30;;;;;;5043207;28;20233;-62
2023/12/18 03:56:31;;;;;;;4.83;4.00;;;3.70;62.50;;;;;;5038383;28;20234;-60
2023/12/18 03:58:57;;;;;;;4.80;3.13;;;3.80;63.10;;;;;;5050629;28;20680;-62
2023/12/18 04:01:24;;;;;;;4.77;3.80;;;3.80;62.60;;;;;;5043529;28;20241;-62
2023/12/18 04:03:49;;;;;;;3.83;3.43;;;3.80;62.50;;;;;;5040041;28;20249;-61
2023/12/18 04:06:16;;;;;;;4.03;3.73;;;3.80;62.50;;;;;;5034881;28;20269;-62
2023/12/18 04:08:42;;;;;;;4.00;3.60;;;3.80;62.50;;;;;;5046719;28;20228;-62
2023/12/18 04:11:09;;;;;;;3.50;3.20;;;3.70;62.70;;;;;;5050777;28;20329;-62
2023/12/18 04:13:35;;;;;;;3.60;3.30;;;3.80;62.90;;;;;;5047321;28;20630;-62
2023/12/18 04:16:02;;;;;;;7.53;3.70;;;3.80;62.50;;;;;;5050598;28;20265;-61
2023/12/18 04:18:28;;;;;;;3.43;3.23;;;3.90;62.60;;;;;;5044427;28;20226;-61
2023/12/18 04:20:55;;;;;;;3.67;3.30;;;3.90;62.60;;;;;;5038217;28;20237;-62
2023/12/18 04:23:21;;;;;;;3.20;3.00;;;3.80;62.50;;;;;;5036577;28;20244;-60
2023/12/18 04:25:48;;;;;;;3.50;3.20;;;3.90;62.60;;;;;;5043701;28;20306;-61
2023/12/18 04:28:14;;;;;;;3.40;3.10;;;3.90;62.60;;;;;;5042634;28;20250;-61
2023/12/18 04:30:41;;;;;;;3.30;3.00;;;3.80;62.50;;;;;;5039287;28;20651;-61
2023/12/18 04:33:08;;;;;;;3.53;3.23;;;3.80;62.50;;;;;;5041304;28;20252;-61
2023/12/18 04:35:34;;;;;;;3.73;3.43;;;3.80;62.50;;;;;;5031424;28;20221;-61
2023/12/18 04:38:01;;;;;;;3.47;3.20;;;3.90;62.60;;;;;;5034699;28;20688;-61
2023/12/18 04:40:27;;;;;;;3.50;3.20;;;3.90;62.60;;;;;;5041310;28;20203;-61
2023/12/18 04:42:54;;;;;;;3.80;3.50;;;3.90;62.60;;;;;;5046159;28;20654;-61
2023/12/18 04:45:20;;;;;;;3.50;3.20;;;3.90;62.60;;;;;;5039451;28;20261;-62
2023/12/18 04:47:47;;;;;;;3.20;2.90;;;3.90;62.30;;;;;;5041971;28;20245;-61
2023/12/18 04:50:13;;;;;;;2.97;2.77;;;3.80;62.30;;;;;;5042357;28;20203;-60
2023/12/18 04:52:40;;;;;;;3.43;3.13;;;3.80;62.50;;;;;;5041788;28;20268;-61
2023/12/18 04:55:06;;;;;;;3.20;2.93;;;3.80;62.10;;;;;;5048153;28;20275;-63
2023/12/18 04:57:33;;;;;;;3.30;3.00;;;3.80;62.50;;;;;;5053426;28;20256;-61
2023/12/18 04:59:59;;;;;;;3.53;2.87;;;3.80;62.50;;;;;;5051931;28;20249;-63
2023/12/18 05:02:26;;;;;;;3.20;2.90;;;3.90;62.20;;;;;;5044158;28;20446;-63
2023/12/18 05:04:52;;;;;;;6.13;3.10;;;3.80;62.50;;;;;;5042745;28;20266;-62
2023/12/18 05:07:19;;;;;;;3.60;3.30;;;3.80;62.00;;;;;;5041943;28;20234;-63
2023/12/18 05:09:45;;;;;;;3.17;2.97;;;3.90;62.10;;;;;;5053720;28;20685;-63
2023/12/18 05:12:12;;;;;;;3.40;3.10;;;3.90;62.30;;;;;;5043347;28;20272;-63
2023/12/18 05:14:38;;;;;;;3.20;2.90;;;3.90;62.00;;;;;;5047371;28;20245;-63
2023/12/18 05:17:05;;;;;;;3.73;3.23;;;3.90;62.60;;;;;;5042122;28;20689;-61
2023/12/18 05:19:31;;;;;;;3.47;3.17;;;3.90;62.50;;;;;;5050660;28;20244;-62
2023/12/18 05:21:58;;;;;;;4.43;3.70;;;3.90;61.70;;;;;;5048565;28;20241;-63
2023/12/18 05:24:24;;;;;;;3.80;3.50;;;3.90;62.30;;;;;;5042122;28;20711;-63
2023/12/18 05:26:51;;;;;;;3.20;2.90;;;3.90;62.30;;;;;;5053632;28;20284;-63
2023/12/18 05:29:17;;;;;;;3.17;2.93;;;3.90;62.30;;;;;;5044743;28;20517;-63
2023/12/18 05:31:43;;;;;;;4.07;3.03;;;3.80;62.50;;;;;;5049613;28;20284;-62
2023/12/18 05:34:10;;;;;;;3.13;2.87;;;3.70;62.40;;;;;;5043925;28;20240;-63
2023/12/18 05:36:36;;;;;;;3.30;3.10;;;3.80;62.50;;;;;;5043671;28;20720;-63
2023/12/18 05:39:03;;;;;;;4.00;3.30;;;3.80;62.50;;;;;;5047584;28;20249;-63
2023/12/18 05:41:29;;;;;;;4.30;3.13;;;3.80;62.50;;;;;;5044482;28;20264;-63
2023/12/18 05:43:56;;;;;;;3.50;3.17;;;3.80;62.90;;;;;;5045837;28;20671;-63
2023/12/18 05:46:22;;;;;;;3.30;3.10;;;3.80;62.50;;;;;;5038675;28;20226;-63
2023/12/18 05:48:49;;;;;;;2.97;2.77;;;3.70;62.40;;;;;;5047727;28;20226;-63
2023/12/18 05:51:15;;;;;;;3.83;3.13;;;3.80;62.90;;;;;;5048561;28;20268;-62
2023/12/18 05:53:42;;;;;;;3.40;2.90;;;3.80;62.50;;;;;;5035585;28;20234;-61
2023/12/18 05:56:09;;;;;;;3.77;3.13;;;3.80;62.50;;;;;;5039886;28;20778;-63
2023/12/18 05:58:35;;;;;;;3.00;2.80;;;3.90;62.00;;;;;;5047135;28;20206;-61
2023/12/18 06:01:02;;;;;;;8.50;3.10;;;3.90;62.20;;;;;;5051370;28;20206;-63
2023/12/18 06:03:28;;;;;;;2.87;2.67;;;3.90;61.70;;;;;;5045554;28;20242;-63
2023/12/18 06:05:55;;;;;;;3.00;2.80;;;3.90;61.80;;;;;;5040627;28;20813;-63
2023/12/18 06:08:21;;;;;;;3.40;3.10;;;3.90;61.60;;;;;;5044337;28;20303;-63
2023/12/18 06:10:48;;;;;;;2.93;2.60;;;3.80;62.50;;;;;;5044060;28;20252;-63
2023/12/18 06:13:15;;;;;;;3.10;2.90;;;3.80;61.90;;;;;;5044731;28;20221;-63
2023/12/18 06:15:41;;;;;;;3.13;2.83;;;3.90;62.20;;;;;;5041332;28;20258;-63
2023/12/18 06:18:08;;;;;;;3.30;2.97;;;3.80;61.70;;;;;;5044057;28;20234;-63
2023/12/18 06:20:34;;;;;;;5.77;3.00;;;3.80;61.80;;;;;;5039505;28;20666;-63
2023/12/18 06:23:01;;;;;;;3.20;2.90;;;3.90;62.00;;;;;;5046495;28;20238;-63
2023/12/18 06:25:27;;;;;;;3.70;2.70;;;3.80;62.50;;;;;;5043672;28;20663;-63
2023/12/18 06:27:54;;;;;;;3.63;2.63;;;3.80;62.10;;;;;;5040673;28;20237;-63
2023/12/18 06:30:20;;;;;;;2.90;2.70;;;3.90;61.90;;;;;;5047262;28;20727;-63
2023/12/18 06:32:47;;;;;;;3.23;2.87;;;3.90;61.80;;;;;;5049731;28;20273;-62
2023/12/18 06:35:13;;;;;;;3.90;2.50;;;3.90;61.80;;;;;;5047980;28;20269;-62
2023/12/18 06:37:42;;;;;;;6.13;2.90;;;3.90;61.50;;;;;;5044476;28;20700;-63
2023/12/18 06:40:08;;;;;;;2.97;2.77;;;3.80;61.30;;;;;;5041816;28;20219;-63
2023/12/18 06:42:35;;;;;;;3.53;2.67;;;3.80;61.70;;;;;;5038390;28;20234;-61
2023/12/18 06:45:02;;;;;;;2.93;2.63;;;3.80;62.00;;;;;;5051959;28;20261;-63
2023/12/18 06:47:29;;;;;;;2.93;2.73;;;3.80;62.00;;;;;;5044634;28;20834;-63
2023/12/18 06:49:55;;;;;;;3.30;3.00;;;3.90;61.80;;;;;;5047444;28;20671;-62
2023/12/18 06:52:21;;;;;;;2.70;2.50;;;4.00;61.20;;;;;;5041844;28;20313;-63
2023/12/18 06:54:48;;;;;;;2.73;2.53;;;4.00;61.00;;;;;;5047659;28;20252;-62
2023/12/18 06:57:16;;;;;;;5.00;2.90;;;4.00;60.50;;;;;;5057317;28;20229;-62
2023/12/18 06:59:42;;;;;;;3.17;2.90;;;4.00;60.40;;;;;;5037604;28;20215;-62
2023/12/18 07:02:09;;;;;;;4.03;2.90;;;4.00;60.40;;;;;;5051288;28;20690;-62
2023/12/18 07:04:35;;;;;;;7.27;2.97;;;4.10;60.00;;;;;;5042113;28;20240;-62
2023/12/18 07:07:02;;;;;;;2.90;2.70;;;4.10;60.10;;;;;;5037066;28;20216;-63
2023/12/18 07:09:28;;;;;;;2.70;2.40;;;4.10;60.00;;;;;;5040867;28;20264;-62
2023/12/18 07:11:54;;;;;;;3.67;2.70;;;4.10;60.10;;;;;;5039832;28;20669;-63
2023/12/18 07:14:21;;;;;;;5.10;3.07;;;4.10;59.90;;;;;;5047603;28;20207;-63
2023/12/18 07:16:47;;;;;;;3.10;2.80;;;4.20;59.60;;;;;;5049596;28;20269;-63
2023/12/18 07:19:14;;;;;;;6.17;2.77;;;4.20;59.40;;;;;;5047213;28;20217;-62
2023/12/18 07:21:40;;;;;;;2.80;2.60;;;4.20;59.40;;;;;;5046540;28;20688;-63
2023/12/18 07:24:07;;;;;;;3.73;2.77;;;4.20;59.40;;;;;;5051880;28;20264;-61
2023/12/18 07:26:33;;;;;;;3.13;2.83;;;4.20;59.40;;;;;;5053275;28;20716;-63
2023/12/18 07:29:00;;;;;;;3.23;2.93;;;4.30;59.30;;;;;;5044276;28;20202;-63
2023/12/18 07:31:26;;;;;;;3.07;2.80;;;4.30;59.70;;;;;;5050958;28;20221;-63
2023/12/18 07:33:53;;;;;;;2.37;2.27;;;4.40;59.00;;;;;;5048732;28;20212;-63
2023/12/18 07:36:20;;;;;;;2.93;2.73;;;4.40;59.10;;;;;;5041040;28;20312;-62
2023/12/18 07:38:46;;;;;;;3.13;2.83;;;4.40;58.90;;;;;;5038055;28;20227;-63
2023/12/18 07:41:13;;;;;;;3.67;3.37;;;4.40;59.10;;;;;;5044894;28;20225;-63
2023/12/18 07:43:39;;;;;;;4.23;2.57;;;4.40;58.90;;;;;;5048754;28;20228;-63
2023/12/18 07:46:06;;;;;;;3.33;2.70;;;4.50;58.70;;;;;;5047549;28;20221;-63
2023/12/18 07:48:33;;;;;;;3.90;2.80;;;4.50;58.60;;;;;;5049697;28;20202;-62
2023/12/18 07:51:00;;;;;;;3.33;2.53;;;4.50;58.60;;;;;;5048639;28;20739;-63
2023/12/18 07:53:26;;;;;;;4.83;2.70;;;4.50;58.30;;;;;;5045636;28;20225;-62
2023/12/18 07:55:53;;;;;;;3.30;2.90;;;4.60;58.70;;;;;;5044718;28;20645;-63
2023/12/18 07:58:19;;;;;;;3.20;2.70;;;4.70;58.80;;;;;;5052134;28;20702;-62
2023/12/18 08:00:46;;;;;;;2.30;2.20;;;4.70;58.80;;;;;;5038090;28;20217;-62
2023/12/18 08:03:12;;;;;;;2.70;2.50;;;4.70;58.30;;;;;;5041379;28;20222;-62
2023/12/18 08:05:39;;;;;;;3.93;2.63;;;4.90;58.10;;;;;;5027607;28;20237;-61
2023/12/18 08:08:05;;;;;;;3.57;2.70;;;5.10;57.90;;;;;;5021208;28;20630;-60
2023/12/18 08:10:32;;;;;;;3.40;2.80;;;5.10;57.30;;;;;;5039815;28;20230;-62
2023/12/18 08:12:58;;;;;;;3.50;2.80;;;5.20;57.30;;;;;;5038710;28;20263;-61
2023/12/18 08:15:25;;;;;;;2.90;2.70;;;5.30;57.20;;;;;;5030681;28;20267;-63
2023/12/18 08:17:52;;;;;;;2.90;2.70;;;5.50;57.10;;;;;;5037651;28;20202;-59
2023/12/18 08:20:18;;;;;;;3.27;3.07;;;5.70;55.80;;;;;;5031935;28;20207;-62
2023/12/18 08:22:45;;;;;;;2.87;2.67;;;6.00;55.60;;;;;;5038715;28;20727;-62
2023/12/18 08:25:11;;;;;;;2.97;2.73;;;6.30;55.80;;;;;;5042747;28;20276;-62
2023/12/18 08:27:38;;;;;;;3.53;2.70;;;6.50;54.30;;;;;;5038517;28;20248;-61
2023/12/18 08:30:05;;;;;;;2.90;2.70;;;6.90;53.40;;;;;;5041476;28;20219;-63
2023/12/18 08:32:31;;;;;;;4.10;2.70;;;7.40;52.00;;;;;;5036194;28;20579;-62
2023/12/18 08:35:00;;;;;;;3.53;2.83;;;7.80;50.60;;;;;;5028184;28;20312;-63
2023/12/18 08:37:27;;;;;;;2.73;2.53;;;8.00;49.40;;;;;;5037617;28;20705;-63
2023/12/18 08:39:53;;;;;;;4.00;2.90;;;8.30;49.40;;;;;;5041859;28;20668;-62
2023/12/18 08:42:20;;;;;;;5.13;2.70;;;8.50;48.60;;;;;;5049646;28;20258;-63
2023/12/18 08:44:46;;;;;;;3.30;3.00;;;8.50;47.80;;;;;;5040820;28;20215;-63
2023/12/18 08:47:13;;;;;;;3.77;2.37;;;8.40;47.60;;;;;;5035744;28;20692;-63
2023/12/18 08:49:39;;;;;;;4.93;2.40;;;8.60;47.20;;;;;;5043414;28;20204;-63
2023/12/18 08:52:06;;;;;;;6.73;2.77;;;8.70;46.50;;;;;;5039621;28;20268;-60
2023/12/18 08:54:32;;;;;;;2.70;2.50;;;8.80;46.40;;;;;;5017917;28;20585;-65
2023/12/18 08:56:59;;;;;;;2.70;2.50;;;9.00;46.00;;;;;;5038514;28;20300;-65
2023/12/18 08:59:25;;;;;;;3.67;2.70;;;9.30;46.20;;;;;;5045530;28;20312;-65
2023/12/18 09:01:52;;;;;;;4.00;2.67;;;9.10;45.10;;;;;;5033157;28;20272;-64
2023/12/18 09:04:18;;;;;;;6.03;2.70;;;9.20;45.50;;;;;;5029667;28;20686;-65
2023/12/18 09:06:45;;;;;;;6.03;2.43;;;9.50;45.00;;;;;;5043574;28;20328;-65
2023/12/18 09:09:12;;;;;;;3.90;2.63;;;9.80;45.30;;;;;;5049865;28;20215;-64
2023/12/18 09:11:39;;;;;;;5.73;3.30;;;9.90;44.50;;;;;;5040523;28;20208;-63
2023/12/18 09:14:05;;;;;;;9.17;3.40;;;9.70;44.50;;;;;;5030235;28;20734;-60
2023/12/18 09:16:32;;;;;;;5.40;3.00;;;9.90;44.90;;;;;;5022025;28;20224;-63
2023/12/18 09:18:58;;;;;;;7.87;3.10;;;10.00;42.80;;;;;;5041998;28;20233;-62
2023/12/18 09:21:25;;;;;;;5.03;2.90;;;10.20;42.80;;;;;;5037582;28;20669;-63
2023/12/18 09:23:51;;;;;;;4.17;3.13;;;10.60;42.30;;;;;;5027639;28;20206;-63
2023/12/18 09:26:18;;;;;;;4.47;3.00;;;10.90;42.40;;;;;;5028136;28;20289;-62
2023/12/18 09:28:44;;;;;;;3.57;2.90;;;11.10;41.50;;;;;;5030672;28;20230;-63
2023/12/18 09:31:11;;;;;;;4.57;2.83;;;11.50;41.70;;;;;;5026298;28;20809;-62
2023/12/18 09:33:37;;;;;;;4.80;2.47;;;11.70;41.10;;;;;;5047081;28;20258;-63
2023/12/18 09:36:04;;;;;;;7.10;3.27;;;11.40;40.00;;;;;;5049991;28;20247;-65
2023/12/18 09:38:30;;;;;;;4.67;2.73;;;11.60;39.80;;;;;;5044181;28;20245;-62
2023/12/18 09:40:57;;;;;;;3.47;2.90;;;11.70;40.70;;;;;;5038720;28;20290;-62
2023/12/18 09:43:25;;;;;;;6.03;2.87;;;11.70;39.40;;;;;;5048047;28;20470;-62
2023/12/18 09:45:51;;;;;;;6.07;3.57;;;11.80;39.90;;;;;;5036997;28;20244;-62
2023/12/18 09:48:18;;;;;;;5.37;3.50;;;11.90;38.10;;;;;;5042654;28;20253;-62
2023/12/18 09:50:45;;;;;;;6.70;2.87;;;12.00;38.30;;;;;;5021115;28;22678;-62
2023/12/18 09:53:12;;;;;;;12.30;4.20;;;12.20;37.20;;;;;;5035149;28;20234;-63
2023/12/18 09:55:39;;;;;;;8.57;3.37;;;12.50;37.50;;;;;;5025957;28;20686;-63
2023/12/18 09:58:05;;;;;;;5.07;2.33;;;12.80;37.30;;;;;;5035084;28;20303;-61
2023/12/18 10:00:32;;;;;;;5.90;2.63;;;13.20;35.70;;;;;;5043988;28;20262;-64
2023/12/18 10:02:58;;;;;;;5.93;2.90;;;13.30;35.10;;;;;;5044598;28;20233;-63
2023/12/18 10:05:24;;;;;;;4.20;2.37;;;13.20;35.20;;;;;;5050309;28;20653;-64
2023/12/18 10:07:51;;;;;;;2.67;2.30;;;13.10;34.70;;;;;;5041503;28;20234;-63
2023/12/18 10:10:17;;;;;;;2.30;2.10;;;13.50;34.00;;;;;;5051895;28;20240;-64
2023/12/18 10:12:44;;;;;;;5.37;2.17;;;13.50;33.60;;;;;;5041134;28;20675;-64
2023/12/18 10:15:11;;;;;;;2.00;1.80;;;13.70;33.80;;;;;;5047910;28;20245;-63
2023/12/18 10:17:37;;;;;;;3.37;2.30;;;14.10;34.10;;;;;;5038685;28;20210;-63
2023/12/18 10:20:04;;;;;;;7.30;2.60;;;14.30;34.30;;;;;;5052159;28;20231;-64
2023/12/18 10:22:31;;;;;;;10.33;4.53;;;;;;;;;;5046019;28;20366;-63
2023/12/18 10:24:58;;;;;;;6.97;3.63;;;14.30;33.40;;;;;;5010037;28;20224;-64
2023/12/18 10:27:25;;;;;;;7.07;3.03;;;14.20;34.20;;;;;;5049414;28;20204;-64
2023/12/18 10:29:53;;;;;;;2.77;2.57;;;14.70;34.20;;;;;;5042481;28;20691;-64
2023/12/18 10:32:19;;;;;;;9.80;3.40;;;14.80;31.90;;;;;;5047000;28;20236;-67
2023/12/18 10:34:46;;;;;;;9.68;2.95;;;15.10;32.90;;;;;;5052390;28;20263;-66
2023/12/18 10:37:12;;;;;;;6.35;2.88;;;15.10;34.30;;;;;;5044519;28;20256;-66
2023/12/18 10:39:39;;;;;;;5.25;2.72;;;15.00;32.80;;;;;;5048050;28;20706;-67
2023/12/18 10:42:06;;;;;;;5.88;3.28;;;15.50;32.40;;;;;;5045861;28;20232;-67
2023/12/18 10:44:32;;;;;;;8.27;2.75;;;15.70;30.90;;;;;;5049265;28;20285;-67
2023/12/18 10:46:59;;;;;;;7.78;3.42;;;15.60;31.40;;;;;;5040781;28;20344;-67
2023/12/18 10:49:26;;;;;;;4.60;3.10;;;15.30;31.40;;;;;;5042039;28;20225;-67
2023/12/18 10:51:52;;;;;;;5.30;2.90;;;15.40;31.80;;;;;;5048757;28;20225;-67
2023/12/18 10:54:19;;;;;;;6.45;4.18;;;15.50;31.80;;;;;;5052022;28;20369;-68
2023/12/18 10:56:45;;;;;;;4.85;3.47;;;15.70;32.80;;;;;;5051929;28;20230;-66
2023/12/18 10:59:13;;;;;;;11.40;4.13;;;15.70;31.00;;;;;;5050037;28;20206;-67
2023/12/18 11:01:39;;;;;;;6.80;3.88;;;16.20;31.50;;;;;;5052218;28;20580;-67
2023/12/18 11:04:06;;;;;;;4.38;3.38;;;16.10;31.10;;;;;;5047876;28;20656;-65
2023/12/18 11:06:32;;;;;;;5.80;3.75;;;16.40;29.70;;;;;;5052666;28;20257;-66
2023/12/18 11:08:59;;;;;;;4.93;3.30;;;16.60;29.40;;;;;;5047582;28;20259;-66
2023/12/18 11:11:25;;;;;;;5.28;2.83;;;16.60;30.10;;;;;;5044317;28;20210;-67
2023/12/18 11:13:52;;;;;;;5.65;3.50;;;17.30;28.00;;;;;;5046447;28;20684;-67
2023/12/18 11:16:18;;;;;;;5.70;3.10;;;18.70;26.10;;;;;;5051714;28;20253;-66
2023/12/18 11:18:44;;;;;;;4.15;2.83;;;20.00;25.10;;;;;;5043789;28;20202;-66
2023/12/18 11:21:10;;;;;;;7.88;3.70;;;21.00;24.10;;;;;;5044164;28;20244;-67
2023/12/18 11:23:37;;;;;;;5.55;3.58;;;21.90;23.40;;;;;;5037410;28;20236;-63
2023/12/18 11:26:03;;;;;;;5.97;3.15;;;22.60;23.30;;;;;;5045341;28;20229;-67
2023/12/18 11:28:30;;;;;;;5.97;2.50;;;22.40;22.70;;;;;;5051041;28;20233;-67
2023/12/18 11:30:57;;;;;;;6.22;3.15;;;22.50;21.30;;;;;;5050828;28;20205;-67
2023/12/18 11:33:23;;;;;;;3.53;2.67;;;22.40;21.60;;;;;;5051696;28;20225;-63
2023/12/18 11:35:50;;;;;;;2.60;1.90;;;22.40;21.90;;;;;;5051628;28;20237;-68
2023/12/18 11:38:16;;;;;;;2.45;2.22;;;21.70;21.60;;;;;;5052749;28;20209;-66
2023/12/18 11:40:43;;;;;;;4.25;2.50;;;19.70;23.30;;;;;;5040244;28;20221;-66
2023/12/18 11:43:09;;;;;;;4.38;2.58;;;18.20;25.20;;;;;;5019818;28;20195;-66
2023/12/18 11:45:36;;;;;;;3.35;2.70;;;17.30;26.50;;;;;;5044442;28;20257;-65
2023/12/18 11:48:02;;;;;;;2.28;1.85;;;16.80;27.70;;;;;;5050312;28;20205;-66
2023/12/18 11:50:29;;;;;;;4.65;1.90;;;16.80;26.60;;;;;;5050896;28;20237;-66
2023/12/18 11:52:56;;;;;;;2.60;2.30;;;16.90;26.90;;;;;;5050755;28;20268;-66
2023/12/18 11:55:22;;;;;;;2.60;2.08;;;16.80;26.30;;;;;;5043619;28;20645;-66
2023/12/18 11:57:49;;;;;;;3.55;2.40;;;16.30;27.00;;;;;;5044382;28;20245;-66
2023/12/18 12:00:16;;;;;;;3.42;2.20;;;15.80;27.50;;;;;;5050036;28;20293;-67
2023/12/18 12:02:42;;;;;;;4.22;2.40;;;15.70;28.20;;;;;;5042688;28;20299;-66
2023/12/18 12:05:09;;;;;;;4.53;3.05;;;15.50;28.30;;;;;;5049871;28;20269;-66
2023/12/18 12:07:38;;;;;;;3.33;2.75;;;15.30;28.80;;;;;;5049334;28;20236;-66
2023/12/18 12:10:04;;;;;;;3.15;2.55;;;15.20;28.40;;;;;;5039198;28;20211;-66
2023/12/18 12:12:31;;;;;;;2.60;2.40;;;15.20;29.00;;;;;;5040210;28;20291;-66
2023/12/18 12:14:57;;;;;;;5.07;2.35;;;15.00;29.00;;;;;;5049592;28;20704;-65
2023/12/18 12:17:24;;;;;;;3.70;2.30;;;14.90;28.90;;;;;;5050851;28;20283;-69
2023/12/18 12:19:51;;;;;;;3.05;1.70;;;14.80;29.30;;;;;;5050454;28;20296;-66
2023/12/18 12:22:17;;;;;;;4.13;2.10;;;14.80;29.10;;;;;;5043847;28;20264;-65
2023/12/18 12:24:44;;;;;;;2.20;2.00;;;14.90;29.00;;;;;;5047484;28;20260;-65
2023/12/18 12:27:11;;;;;;;5.57;1.98;;;14.70;28.30;;;;;;5036068;28;20217;-66
2023/12/18 12:29:38;;;;;;;5.80;2.33;;;14.70;28.80;;;;;;5042092;28;20763;-62
2023/12/18 12:32:05;;;;;;;4.25;2.10;;;14.60;29.20;;;;;;5020113;28;20201;-68
2023/12/18 12:34:31;;;;;;;4.28;2.70;;;14.50;29.80;;;;;;5046847;28;20225;-64
2023/12/18 12:36:58;;;;;;;4.45;2.03;;;14.50;29.80;;;;;;5033817;28;20290;-64
2023/12/18 12:39:24;;;;;;;6.03;2.03;;;14.50;28.80;;;;;;5042423;28;20237;-66
2023/12/18 12:41:51;;;;;;;2.97;1.80;;;14.50;29.60;;;;;;5047135;28;20297;-64
2023/12/18 12:44:17;;;;;;;8.07;1.90;;;14.60;28.40;;;;;;5038427;28;20237;-64
2023/12/18 12:46:45;;;;;;;5.43;1.50;;;14.70;27.80;;;;;;5022795;28;20238;-64
2023/12/18 12:49:12;;;;;;;3.17;1.83;;;14.80;28.60;;;;;;5040687;28;20206;-65
2023/12/18 12:51:38;;;;;;;2.70;1.73;;;14.80;28.90;;;;;;5050034;28;20261;-64